createdAt,value
2018-03-08T00:01:00.677Z,1.00
2018-03-08T00:03:29.000Z,0.90
2018-03-08T00:05:57.340Z,1.07
2018-03-08T00:08:25.624Z,0.87
2018-03-08T00:10:54.181Z,0.90
2018-03-08T00:13:22.480Z,0.97
2018-03-08T00:15:50.867Z,1.10
2018-03-08T00:18:19.141Z,1.10
2018-03-08T00:20:47.445Z,1.10
2018-03-08T00:23:18.553Z,1.00
2018-03-08T00:25:46.944Z,1.10
2018-03-08T00:28:16.007Z,0.90
2018-03-08T00:30:44.336Z,0.90
2018-03-08T00:33:12.798Z,1.20
2018-03-08T00:35:41.150Z,1.10
2018-03-08T00:38:09.651Z,1.23
2018-03-08T00:40:37.945Z,1.07
2018-03-08T00:43:06.484Z,1.10
2018-03-08T00:45:34.771Z,1.00
2018-03-08T00:48:03.110Z,1.13
2018-03-08T00:50:31.429Z,1.13
2018-03-08T00:52:59.805Z,1.00
2018-03-08T00:55:28.233Z,1.00
2018-03-08T00:57:56.572Z,1.20
2018-03-08T01:00:24.914Z,1.10
2018-03-08T01:02:55.256Z,1.30
2018-03-08T01:05:23.593Z,1.23
2018-03-08T01:07:52.046Z,1.10
2018-03-08T01:10:24.089Z,1.40
2018-03-08T01:12:54.567Z,1.20
2018-03-08T01:15:22.930Z,1.30
2018-03-08T01:17:51.217Z,1.43
2018-03-08T01:20:19.687Z,1.40
2018-03-08T01:22:48.005Z,1.50
2018-03-08T01:25:16.305Z,1.40
2018-03-08T01:27:44.633Z,1.40
2018-03-08T01:30:13.086Z,1.37
2018-03-08T01:32:41.404Z,1.50
2018-03-08T01:35:09.745Z,1.57
2018-03-08T01:37:38.204Z,1.47
2018-03-08T01:40:06.492Z,1.87
2018-03-08T01:42:34.915Z,1.57
2018-03-08T01:45:03.254Z,1.83
2018-03-08T01:47:31.751Z,1.43
2018-03-08T01:50:00.122Z,1.83
2018-03-08T01:52:28.717Z,1.80
2018-03-08T01:54:57.793Z,1.60
2018-03-08T01:57:26.231Z,2.10
2018-03-08T01:59:54.529Z,2.20
2018-03-08T02:02:23.262Z,1.90
2018-03-08T02:04:51.597Z,2.30
2018-03-08T02:07:19.896Z,2.30
2018-03-08T02:09:51.660Z,1.90
2018-03-08T02:12:19.994Z,2.20
2018-03-08T02:14:48.317Z,2.10
2018-03-08T02:17:20.822Z,2.63
2018-03-08T02:19:49.176Z,2.67
2018-03-08T02:22:17.510Z,2.00
2018-03-08T02:24:46.015Z,2.37
2018-03-08T02:27:14.384Z,2.33
2018-03-08T02:29:44.485Z,2.63
2018-03-08T02:32:14.570Z,2.10
2018-03-08T02:34:42.911Z,2.40
2018-03-08T02:37:11.225Z,2.10
2018-03-08T02:39:39.573Z,2.10
2018-03-08T02:42:07.952Z,2.17
2018-03-08T02:44:36.233Z,2.30
2018-03-08T02:47:04.747Z,2.30
2018-03-08T02:49:33.056Z,2.70
2018-03-08T02:52:01.415Z,2.50
2018-03-08T02:54:31.461Z,2.17
2018-03-08T02:56:59.825Z,2.30
2018-03-08T02:59:28.169Z,2.50
2018-03-08T03:01:56.519Z,2.23
2018-03-08T03:04:25.733Z,2.10
2018-03-08T03:06:55.660Z,2.10
2018-03-08T03:09:26.802Z,2.43
2018-03-08T03:11:55.188Z,2.50
2018-03-08T03:14:25.273Z,2.27
2018-03-08T03:16:53.760Z,2.50
2018-03-08T03:19:22.256Z,2.60
2018-03-08T03:21:50.606Z,2.73
2018-03-08T03:24:18.884Z,2.07
2018-03-08T03:26:47.448Z,2.50
2018-03-08T03:29:15.804Z,2.20
2018-03-08T03:31:44.111Z,1.90
2018-03-08T03:34:12.396Z,2.43
2018-03-08T03:36:40.696Z,2.00
2018-03-08T03:39:09.025Z,2.50
2018-03-08T03:41:42.578Z,2.10
2018-03-08T03:44:10.915Z,2.20
2018-03-08T03:46:40.086Z,2.30
2018-03-08T03:49:08.379Z,2.57
2018-03-08T03:51:36.688Z,2.20
2018-03-08T03:54:05.168Z,2.23
2018-03-08T03:56:33.827Z,2.03
2018-03-08T03:59:02.810Z,1.90
2018-03-08T04:01:31.110Z,1.93
2018-03-08T04:03:59.472Z,2.33
2018-03-08T04:06:27.671Z,2.30
2018-03-08T04:08:55.934Z,2.20
2018-03-08T04:11:24.166Z,2.70
2018-03-08T04:13:52.375Z,1.97
2018-03-08T04:16:20.594Z,2.00
2018-03-08T04:18:48.823Z,2.17
2018-03-08T04:21:17.026Z,1.87
2018-03-08T04:23:45.262Z,2.53
2018-03-08T04:26:13.539Z,1.93
2018-03-08T04:28:41.779Z,1.93
2018-03-08T04:31:10.124Z,1.90
2018-03-08T04:33:38.315Z,2.13
2018-03-08T04:36:06.565Z,2.10
2018-03-08T04:38:34.763Z,2.27
2018-03-08T04:41:03.018Z,2.00
2018-03-08T04:43:31.227Z,2.03
2018-03-08T04:45:59.464Z,2.10
2018-03-08T04:48:27.698Z,2.20
2018-03-08T04:50:55.934Z,1.90
2018-03-08T04:53:24.166Z,2.17
2018-03-08T04:55:52.407Z,2.57
2018-03-08T04:58:20.625Z,2.10
2018-03-08T05:00:48.873Z,2.10
2018-03-08T05:03:17.115Z,2.17
2018-03-08T05:05:45.319Z,2.20
2018-03-08T05:10:47.979Z,2.13
2018-03-08T05:13:16.211Z,2.10
2018-03-08T05:15:44.496Z,2.33
2018-03-08T05:18:12.707Z,2.20
2018-03-08T05:20:40.914Z,2.23
2018-03-08T05:23:09.175Z,2.50
2018-03-08T05:25:37.373Z,2.40
2018-03-08T05:28:05.565Z,2.33
2018-03-08T05:30:33.810Z,2.23
2018-03-08T05:33:02.124Z,1.90
2018-03-08T05:35:30.420Z,2.30
2018-03-08T05:37:58.670Z,2.10
2018-03-08T05:40:26.883Z,2.40
2018-03-08T05:42:55.125Z,2.23
2018-03-08T05:45:23.388Z,2.10
2018-03-08T05:47:51.647Z,2.20
2018-03-08T05:50:19.860Z,2.00
2018-03-08T05:52:48.127Z,2.67
2018-03-08T05:55:16.356Z,2.70
2018-03-08T05:57:44.570Z,2.50
2018-03-08T06:00:12.770Z,2.33
2018-03-08T06:02:41.039Z,2.33
2018-03-08T06:05:09.232Z,2.40
2018-03-08T06:07:37.470Z,2.67
2018-03-08T06:10:05.703Z,2.60
2018-03-08T06:12:33.934Z,2.23
2018-03-08T06:15:02.381Z,2.33
2018-03-08T06:17:30.674Z,2.60
2018-03-08T06:19:58.899Z,2.30
2018-03-08T06:22:27.194Z,2.60
2018-03-08T06:24:55.429Z,2.77
2018-03-08T06:27:23.711Z,2.97
2018-03-08T06:29:51.954Z,2.90
2018-03-08T06:32:20.130Z,2.83
2018-03-08T06:34:48.392Z,2.83
2018-03-08T06:37:16.619Z,3.03
2018-03-08T06:39:45.149Z,2.70
2018-03-08T06:42:13.347Z,3.40
2018-03-08T06:44:41.629Z,3.20
2018-03-08T06:47:09.839Z,3.67
2018-03-08T06:49:38.101Z,3.10
2018-03-08T06:52:06.324Z,3.17
2018-03-08T06:54:34.599Z,3.67
2018-03-08T06:57:02.870Z,4.17
2018-03-08T06:59:31.100Z,4.03
2018-03-08T07:01:59.395Z,4.10
2018-03-08T07:04:27.723Z,4.07
2018-03-08T07:06:56.017Z,3.90
2018-03-08T07:09:24.273Z,4.10
2018-03-08T07:11:52.524Z,4.13
2018-03-08T07:14:20.781Z,4.33
2018-03-08T07:16:49.039Z,4.10
2018-03-08T07:19:17.263Z,4.83
2018-03-08T07:21:45.475Z,4.90
2018-03-08T07:24:13.705Z,5.60
2018-03-08T07:26:41.933Z,4.60
2018-03-08T07:29:10.207Z,3.80
2018-03-08T07:31:38.433Z,4.40
2018-03-08T07:34:06.699Z,4.80
2018-03-08T07:36:34.942Z,4.83
2018-03-08T07:39:03.196Z,4.70
2018-03-08T07:41:31.392Z,4.00
2018-03-08T07:43:59.678Z,4.00
2018-03-08T07:46:27.886Z,4.00
2018-03-08T07:48:56.183Z,3.80
2018-03-08T07:51:24.399Z,4.73
2018-03-08T07:53:52.676Z,3.70
2018-03-08T07:56:20.922Z,3.63
2018-03-08T07:58:49.131Z,3.10
2018-03-08T08:01:17.377Z,3.13
2018-03-08T08:03:45.583Z,3.23
2018-03-08T08:06:25.665Z,2.63
2018-03-08T08:09:05.543Z,2.30
2018-03-08T08:11:33.773Z,2.63
2018-03-08T08:14:01.997Z,2.20
2018-03-08T08:16:30.283Z,2.50
2018-03-08T08:18:58.504Z,2.40
2018-03-08T08:21:26.752Z,2.10
2018-03-08T08:23:54.991Z,2.53
2018-03-08T08:26:23.466Z,2.20
2018-03-08T08:28:51.704Z,2.20
2018-03-08T08:31:19.938Z,2.40
2018-03-08T08:33:48.170Z,2.27
2018-03-08T08:36:16.429Z,2.00
2018-03-08T08:38:44.679Z,1.80
2018-03-08T08:41:12.898Z,1.93
2018-03-08T08:43:41.137Z,1.93
2018-03-08T08:46:09.348Z,1.97
2018-03-08T08:48:37.592Z,2.50
2018-03-08T08:51:05.838Z,2.20
2018-03-08T08:53:34.072Z,2.43
2018-03-08T08:56:02.318Z,1.87
2018-03-08T08:58:30.975Z,2.00
2018-03-08T09:00:59.174Z,1.90
2018-03-08T09:03:27.404Z,2.40
2018-03-08T09:05:55.618Z,1.87
2018-03-08T09:08:23.832Z,1.67
2018-03-08T09:10:52.072Z,1.97
2018-03-08T09:13:20.316Z,1.90
2018-03-08T09:15:48.575Z,1.70
2018-03-08T09:18:16.795Z,1.80
2018-03-08T09:20:45.056Z,1.80
2018-03-08T09:23:13.264Z,1.50
2018-03-08T09:25:41.809Z,1.80
2018-03-08T09:28:10.062Z,2.20
2018-03-08T09:30:38.378Z,1.77
2018-03-08T09:33:06.678Z,2.30
2018-03-08T09:35:34.950Z,2.23
2018-03-08T09:38:03.212Z,1.50
2018-03-08T09:40:31.425Z,1.30
2018-03-08T09:42:59.646Z,1.50
2018-03-08T09:45:27.854Z,1.50
2018-03-08T09:47:56.100Z,1.30
2018-03-08T09:50:24.415Z,1.30
2018-03-08T09:52:52.642Z,1.50
2018-03-08T09:55:20.835Z,1.27
2018-03-08T09:57:49.593Z,1.37
2018-03-08T10:00:17.822Z,1.20
2018-03-08T10:02:46.138Z,1.13
2018-03-08T10:05:14.368Z,1.20
2018-03-08T10:07:42.601Z,1.30
2018-03-08T10:10:10.874Z,1.20
2018-03-08T10:12:39.078Z,1.30
2018-03-08T10:15:07.352Z,1.47
2018-03-08T10:17:35.583Z,1.50
2018-03-08T10:20:03.810Z,1.77
2018-03-08T10:22:32.022Z,1.50
2018-03-08T10:25:00.290Z,1.10
2018-03-08T10:27:28.527Z,1.30
2018-03-08T10:29:56.770Z,1.60
2018-03-08T10:32:24.982Z,1.50
2018-03-08T10:34:53.215Z,1.10
2018-03-08T10:37:21.422Z,1.20
2018-03-08T10:39:49.704Z,0.90
2018-03-08T10:42:17.912Z,0.87
2018-03-08T10:44:46.130Z,1.50
2018-03-08T10:47:14.370Z,1.10
2018-03-08T10:49:42.596Z,1.17
2018-03-08T10:52:10.840Z,1.43
2018-03-08T10:54:39.056Z,1.60
2018-03-08T10:57:07.296Z,1.40
2018-03-08T10:59:35.495Z,1.10
2018-03-08T11:02:03.791Z,1.20
2018-03-08T11:04:35.944Z,1.13
2018-03-08T11:07:04.238Z,1.13
2018-03-08T11:09:32.446Z,1.27
2018-03-08T11:12:00.686Z,1.20
2018-03-08T11:14:28.918Z,1.70
2018-03-08T11:16:57.154Z,1.40
2018-03-08T11:19:25.497Z,1.57
2018-03-08T11:21:53.698Z,1.40
2018-03-08T11:24:21.941Z,2.00
2018-03-08T11:26:50.175Z,1.20
2018-03-08T11:29:18.858Z,1.40
2018-03-08T11:31:47.331Z,1.30
2018-03-08T11:34:15.746Z,1.20
2018-03-08T11:36:44.084Z,1.40
2018-03-08T11:39:12.504Z,1.40
2018-03-08T11:41:40.964Z,1.23
2018-03-08T11:44:09.217Z,1.23
2018-03-08T11:46:37.537Z,1.40
2018-03-08T11:49:06.060Z,1.40
2018-03-08T11:51:34.327Z,1.20
2018-03-08T11:54:02.593Z,1.20
2018-03-08T11:56:30.841Z,1.83
2018-03-08T11:58:59.097Z,1.40
2018-03-08T12:01:27.367Z,1.40
2018-03-08T12:03:55.623Z,1.10
2018-03-08T12:06:24.003Z,1.20
2018-03-08T12:08:52.233Z,1.70
2018-03-08T12:11:20.536Z,1.20
2018-03-08T12:13:48.777Z,1.30
2018-03-08T12:16:17.024Z,1.40
2018-03-08T12:18:45.246Z,1.47
2018-03-08T12:21:13.494Z,1.20
2018-03-08T12:23:41.710Z,1.30
2018-03-08T12:26:09.965Z,1.00
2018-03-08T12:28:38.199Z,1.03
2018-03-08T12:31:06.462Z,1.40
2018-03-08T12:33:34.685Z,1.17
2018-03-08T12:36:02.923Z,1.43
2018-03-08T12:38:31.204Z,1.40
2018-03-08T12:40:59.442Z,1.00
2018-03-08T12:43:27.707Z,1.30
2018-03-08T12:45:55.951Z,1.07
2018-03-08T12:48:24.209Z,1.10
2018-03-08T12:50:52.437Z,1.13
2018-03-08T12:53:20.683Z,1.10
2018-03-08T12:55:48.890Z,1.20
2018-03-08T12:58:17.109Z,1.30
2018-03-08T13:00:45.415Z,1.13
2018-03-08T13:03:13.664Z,1.20
2018-03-08T13:05:41.929Z,1.17
2018-03-08T13:08:10.139Z,1.10
2018-03-08T13:10:38.392Z,1.20
2018-03-08T13:13:06.663Z,1.10
2018-03-08T13:15:34.884Z,1.20
2018-03-08T13:18:03.131Z,1.20
2018-03-08T13:20:31.434Z,1.40
2018-03-08T13:22:59.655Z,1.50
2018-03-08T13:25:27.930Z,1.00
2018-03-08T13:27:56.187Z,1.03
2018-03-08T13:30:24.463Z,1.13
2018-03-08T13:32:52.687Z,1.00
2018-03-08T13:35:21.169Z,1.17
2018-03-08T13:37:49.427Z,1.00
2018-03-08T13:40:17.673Z,1.00
2018-03-08T13:42:45.894Z,2.07
2018-03-08T13:45:14.182Z,1.17
2018-03-08T13:47:42.469Z,1.30
2018-03-08T13:50:10.682Z,1.33
2018-03-08T13:52:38.930Z,1.13
2018-03-08T13:55:07.145Z,1.23
2018-03-08T13:57:35.407Z,1.20
2018-03-08T14:00:03.619Z,1.10
2018-03-08T14:02:31.842Z,1.30
2018-03-08T14:05:00.830Z,1.07
2018-03-08T14:07:29.069Z,1.20
2018-03-08T14:09:57.301Z,1.20
2018-03-08T14:12:25.517Z,1.20
2018-03-08T14:14:53.749Z,1.27
2018-03-08T14:17:21.998Z,1.33
2018-03-08T14:19:50.249Z,1.20
2018-03-08T14:22:18.492Z,1.20
2018-03-08T14:24:46.722Z,1.20
2018-03-08T14:27:14.940Z,1.10
2018-03-08T14:29:43.242Z,1.30
2018-03-08T14:32:11.494Z,1.00
2018-03-08T14:34:39.708Z,1.00
2018-03-08T14:37:07.951Z,1.23
2018-03-08T14:39:36.243Z,1.40
2018-03-08T14:42:04.499Z,1.00
2018-03-08T14:44:32.710Z,1.13
2018-03-08T14:47:00.973Z,1.20
2018-03-08T14:49:29.250Z,1.00
2018-03-08T14:51:57.527Z,1.00
2018-03-08T14:54:25.867Z,1.30
2018-03-08T14:56:54.124Z,1.40
2018-03-08T14:59:22.405Z,1.00
2018-03-08T15:01:50.609Z,1.00
2018-03-08T15:04:18.880Z,1.00
2018-03-08T15:06:47.106Z,1.53
2018-03-08T15:09:16.195Z,0.93
2018-03-08T15:11:44.436Z,1.00
2018-03-08T15:14:12.681Z,1.10
2018-03-08T15:16:40.954Z,1.03
2018-03-08T15:19:09.226Z,1.07
2018-03-08T15:21:37.465Z,1.10
2018-03-08T15:24:05.698Z,1.13
2018-03-08T15:26:33.938Z,1.03
2018-03-08T15:29:02.182Z,1.17
2018-03-08T15:31:30.422Z,1.10
2018-03-08T15:33:58.677Z,1.30
2018-03-08T15:36:26.933Z,1.13
2018-03-08T15:38:55.216Z,1.20
2018-03-08T15:41:23.563Z,1.00
2018-03-08T15:43:51.985Z,0.90
2018-03-08T15:46:20.226Z,1.10
2018-03-08T15:48:48.452Z,1.17
2018-03-08T15:51:16.700Z,0.90
2018-03-08T15:53:44.922Z,1.10
2018-03-08T15:56:13.188Z,1.20
2018-03-08T15:58:41.437Z,1.13
2018-03-08T16:01:09.694Z,1.00
2018-03-08T16:03:37.923Z,1.10
2018-03-08T16:06:06.124Z,1.30
2018-03-08T16:08:46.338Z,1.40
2018-03-08T16:11:14.637Z,1.30
2018-03-08T16:13:42.978Z,1.50
2018-03-08T16:16:11.218Z,1.87
2018-03-08T16:18:39.492Z,1.87
2018-03-08T16:21:07.712Z,1.17
2018-03-08T16:23:35.952Z,1.67
2018-03-08T16:26:04.374Z,1.50
2018-03-08T16:28:32.651Z,1.07
2018-03-08T16:31:00.878Z,1.17
2018-03-08T16:33:29.114Z,1.60
2018-03-08T16:35:57.365Z,1.50
2018-03-08T16:38:25.594Z,2.10
2018-03-08T16:40:53.827Z,1.50
2018-03-08T16:43:22.088Z,1.17
2018-03-08T16:45:50.331Z,1.50
2018-03-08T16:48:18.556Z,1.43
2018-03-08T16:50:46.795Z,1.53
2018-03-08T16:53:14.995Z,1.63
2018-03-08T16:55:43.252Z,2.23
2018-03-08T16:58:11.476Z,2.37
2018-03-08T17:00:39.757Z,3.20
2018-03-08T17:03:07.994Z,3.23
2018-03-08T17:05:36.231Z,3.90
2018-03-08T17:08:04.488Z,4.43
2018-03-08T17:10:32.806Z,4.50
2018-03-08T17:13:01.116Z,5.40
2018-03-08T17:15:29.331Z,4.27
2018-03-08T17:17:57.584Z,4.30
2018-03-08T17:20:25.816Z,4.47
2018-03-08T17:22:54.048Z,4.20
2018-03-08T17:25:22.346Z,4.47
2018-03-08T17:27:50.587Z,3.80
2018-03-08T17:30:18.835Z,6.90
2018-03-08T17:32:47.036Z,9.57
2018-03-08T17:35:15.286Z,5.20
2018-03-08T17:37:43.534Z,4.30
2018-03-08T17:40:11.806Z,4.73
2018-03-08T17:42:40.101Z,4.90
2018-03-08T17:45:08.346Z,4.37
2018-03-08T17:47:36.608Z,4.47
2018-03-08T17:50:04.798Z,4.00
2018-03-08T17:52:33.043Z,4.77
2018-03-08T17:55:01.550Z,3.53
2018-03-08T17:57:29.837Z,4.77
2018-03-08T17:59:58.140Z,4.97
2018-03-08T18:02:26.306Z,4.33
2018-03-08T18:04:54.572Z,4.13
2018-03-08T18:07:22.776Z,4.60
2018-03-08T18:09:51.028Z,6.30
2018-03-08T18:12:19.264Z,4.47
2018-03-08T18:14:47.471Z,7.87
2018-03-08T18:17:15.727Z,8.40
2018-03-08T18:19:43.958Z,6.37
2018-03-08T18:22:12.206Z,6.20
2018-03-08T18:24:40.474Z,6.03
2018-03-08T18:27:08.759Z,4.70
2018-03-08T18:29:36.973Z,5.00
2018-03-08T18:32:05.199Z,4.47
2018-03-08T18:34:33.568Z,4.33
2018-03-08T18:37:01.872Z,3.73
2018-03-08T18:39:31.455Z,2.80
2018-03-08T18:41:59.840Z,2.73
2018-03-08T18:44:28.214Z,4.10
2018-03-08T18:46:56.472Z,5.80
2018-03-08T18:49:24.759Z,4.73
2018-03-08T18:51:52.981Z,4.63
2018-03-08T18:54:21.266Z,5.87
2018-03-08T18:56:49.581Z,4.83
2018-03-08T18:59:18.102Z,5.13
2018-03-08T19:01:46.418Z,4.43
2018-03-08T19:04:14.643Z,5.30
2018-03-08T19:06:43.833Z,4.70
2018-03-08T19:09:12.084Z,4.70
2018-03-08T19:11:40.468Z,5.37
2018-03-08T19:14:08.675Z,5.47
2018-03-08T19:16:36.933Z,5.47
2018-03-08T19:19:05.193Z,6.27
2018-03-08T19:21:33.445Z,6.47
2018-03-08T19:24:01.799Z,6.10
2018-03-08T19:26:30.216Z,5.97
2018-03-08T19:28:58.495Z,7.07
2018-03-08T19:31:26.783Z,6.00
2018-03-08T19:33:55.023Z,5.17
2018-03-08T19:36:23.294Z,6.60
2018-03-08T19:38:51.594Z,5.50
2018-03-08T19:41:20.084Z,5.83
2018-03-08T19:43:48.377Z,5.97
2018-03-08T19:46:16.636Z,5.90
2018-03-08T19:48:44.910Z,6.00
2018-03-08T19:51:13.169Z,5.80
2018-03-08T19:53:41.439Z,6.10
2018-03-08T19:56:09.746Z,6.37
2018-03-08T19:58:38.086Z,5.57
2018-03-08T20:01:06.377Z,5.10
2018-03-08T20:03:34.775Z,5.30
2018-03-08T20:06:02.984Z,5.20
2018-03-08T20:08:31.226Z,5.27
2018-03-08T20:10:59.516Z,5.00
2018-03-08T20:13:28.262Z,5.37
2018-03-08T20:15:56.547Z,5.90
2018-03-08T20:18:24.805Z,6.50
2018-03-08T20:20:53.143Z,6.90
2018-03-08T20:23:21.579Z,8.17
2018-03-08T20:25:49.872Z,8.47
2018-03-08T20:28:18.102Z,8.23
2018-03-08T20:30:46.620Z,10.17
2018-03-08T20:33:14.855Z,7.73
2018-03-08T20:35:43.124Z,7.50
2018-03-08T20:38:11.440Z,9.17
2018-03-08T20:40:39.686Z,7.83
2018-03-08T20:43:08.008Z,6.97
2018-03-08T20:45:36.524Z,7.43
2018-03-08T20:48:04.759Z,6.93
2018-03-08T20:50:32.978Z,7.87
2018-03-08T20:53:01.264Z,6.30
2018-03-08T20:55:29.537Z,6.30
2018-03-08T20:57:57.799Z,6.50
2018-03-08T21:00:26.152Z,6.70
2018-03-08T21:02:54.421Z,7.87
2018-03-08T21:05:22.678Z,7.00
2018-03-08T21:07:50.950Z,7.20
2018-03-08T21:10:19.183Z,6.27
2018-03-08T21:12:47.467Z,6.30
2018-03-08T21:15:15.704Z,7.03
2018-03-08T21:17:43.992Z,6.47
2018-03-08T21:20:12.228Z,6.93
2018-03-08T21:22:40.704Z,6.20
2018-03-08T21:25:08.978Z,6.70
2018-03-08T21:27:37.255Z,6.00
2018-03-08T21:30:05.511Z,6.43
2018-03-08T21:32:33.849Z,6.40
2018-03-08T21:35:02.184Z,6.27
2018-03-08T21:37:30.419Z,7.03
2018-03-08T21:39:58.798Z,6.53
2018-03-08T21:42:27.228Z,6.97
2018-03-08T21:44:55.804Z,6.00
2018-03-08T21:47:24.245Z,6.30
2018-03-08T21:49:52.492Z,6.23
2018-03-08T21:52:20.717Z,6.67
2018-03-08T21:54:48.969Z,6.30
2018-03-08T21:57:17.483Z,7.00
2018-03-08T21:59:45.701Z,6.47
2018-03-08T22:02:13.941Z,6.07
2018-03-08T22:04:42.171Z,5.33
2018-03-08T22:07:10.493Z,5.17
2018-03-08T22:09:38.717Z,5.20
2018-03-08T22:12:06.970Z,5.10
2018-03-08T22:14:35.216Z,4.80
2018-03-08T22:17:03.459Z,4.17
2018-03-08T22:19:31.684Z,3.90
2018-03-08T22:21:59.950Z,4.40
2018-03-08T22:24:28.177Z,4.07
2018-03-08T22:26:56.467Z,4.80
2018-03-08T22:29:24.681Z,4.43
2018-03-08T22:31:52.930Z,4.40
2018-03-08T22:34:21.167Z,3.77
2018-03-08T22:36:50.113Z,3.73
2018-03-08T22:39:19.020Z,4.00
2018-03-08T22:41:47.291Z,3.80
2018-03-08T22:44:15.519Z,4.40
2018-03-08T22:46:43.724Z,4.60
2018-03-08T22:49:11.985Z,3.63
2018-03-08T22:51:40.242Z,3.70
2018-03-08T22:54:08.496Z,3.50
2018-03-08T22:56:36.744Z,3.20
2018-03-08T22:59:05.025Z,3.50
2018-03-08T23:04:54.905Z,2.53
2018-03-08T23:07:23.242Z,2.47
2018-03-08T23:09:51.723Z,2.73
2018-03-08T23:12:20.038Z,2.83
2018-03-08T23:14:48.384Z,3.33
2018-03-08T23:17:16.744Z,2.93
2018-03-08T23:19:46.062Z,3.00
2018-03-08T23:22:14.361Z,3.10
2018-03-08T23:24:44.646Z,2.83
2018-03-08T23:27:13.845Z,3.37
2018-03-08T23:29:42.216Z,2.53
2018-03-08T23:32:12.467Z,2.70
2018-03-08T23:34:43.171Z,3.10
2018-03-08T23:37:11.500Z,2.57
2018-03-08T23:39:41.473Z,2.70
2018-03-08T23:42:09.894Z,3.10
2018-03-08T23:44:40.712Z,3.23
2018-03-08T23:47:09.071Z,2.50
2018-03-08T23:49:37.367Z,2.73
2018-03-08T23:52:05.672Z,2.20
2018-03-08T23:54:34.765Z,2.70
2018-03-08T23:57:03.094Z,2.57
2018-03-08T23:59:31.427Z,2.47
